Time;durP1;ratioP1;P1;durP2;ratioP2;P2;SDS_P1;SDS_P2;PMS_P1;PMS_P2;Temp;Humidity;BMP_temperature;BMP_pressure;BME280_temperature;BME280_humidity;BME280_pressure;Samples;Min_cycle;Max_cycle;Signal;HPM_P1;HPM_P2
2021/12/03 00:01:38;;;;;;;;;;;28.60;94.60;;;;;;5013397;28;19910;-65
2021/12/03 00:04:05;;;;;;;;;;;28.70;94.40;;;;;;4996215;28;19913;-65
2021/12/03 00:06:35;;;;;;;;;;;28.70;94.20;;;;;;5013430;28;19909;-65
2021/12/03 00:09:03;;;;;;;;;;;28.90;94.00;;;;;;4996431;28;19910;-66
2021/12/03 00:11:30;;;;;;;;;;;28.90;93.90;;;;;;5020800;28;19913;-70
2021/12/03 00:13:57;;;;;;;;;;;28.90;93.70;;;;;;5018335;28;20356;-72
2021/12/03 00:16:23;;;;;;;;;;;29.00;93.30;;;;;;5013202;28;19921;-69
2021/12/03 00:18:50;;;;;;;;;;;29.30;93.50;;;;;;5013127;28;20004;-71
2021/12/03 00:21:17;;;;;;;;;;;29.50;93.20;;;;;;5013524;28;19932;-71
2021/12/03 00:23:44;;;;;;;;;;;29.70;92.00;;;;;;5013040;28;20360;-71
2021/12/03 00:26:11;;;;;;;;;;;29.70;91.30;;;;;;5013895;28;20362;-65
2021/12/03 00:28:38;;;;;;;;;;;29.80;91.20;;;;;;5032566;28;20460;-65
2021/12/03 00:31:04;;;;;;;;;;;29.90;91.00;;;;;;5032676;28;19939;-65
2021/12/03 00:33:31;;;;;;;;;;;30.10;91.50;;;;;;5015141;28;19999;-65
2021/12/03 00:36:03;;;;;;;;;;;30.30;91.30;;;;;;5033347;28;19915;-63
2021/12/03 00:38:35;;;;;;;;;;;30.40;88.90;;;;;;5019141;28;19921;-64
2021/12/03 00:41:12;;;;;;;;;;;30.50;88.50;;;;;;5031703;28;20223;-63
2021/12/03 00:43:46;;;;;;;;;;;30.60;88.00;;;;;;5032389;28;20489;-63
2021/12/03 00:46:16;;;;;;;;;;;30.80;88.90;;;;;;5032459;28;19964;-64
2021/12/03 00:48:43;;;;;;;;;;;31.00;87.50;;;;;;5032307;28;20317;-64
2021/12/03 00:51:09;;;;;;;;;;;31.10;88.30;;;;;;5014858;28;19910;-64
2021/12/03 00:53:36;;;;;;;;;;;31.30;89.20;;;;;;5032374;28;19937;-64
2021/12/03 00:56:03;;;;;;;;;;;31.40;90.00;;;;;;5032851;28;19917;-64
2021/12/03 00:58:30;;;;;;;;;;;31.30;89.10;;;;;;5014649;28;19963;-62
2021/12/03 01:00:57;;;;;;;;;;;31.00;89.00;;;;;;5033212;28;19915;-63
2021/12/03 01:03:23;;;;;;;;;;;30.60;89.70;;;;;;5029088;28;19953;-63
2021/12/03 01:05:50;;;;;;;;;;;30.50;90.10;;;;;;5022132;28;19909;-63
2021/12/03 01:08:17;;;;;;;;;;;30.30;90.10;;;;;;5022777;28;19909;-63
2021/12/03 01:10:43;;;;;;;;;;;30.10;89.80;;;;;;5023153;28;19971;-64
2021/12/03 01:13:10;;;;;;;;;;;29.70;90.30;;;;;;5020558;28;19913;-64
2021/12/03 01:15:37;;;;;;;;;;;29.60;90.60;;;;;;5022969;28;19917;-64
2021/12/03 01:18:04;;;;;;;;;;;29.50;90.60;;;;;;5023692;28;20405;-64
2021/12/03 01:20:31;;;;;;;;;;;29.50;91.20;;;;;;5022131;28;20327;-64
2021/12/03 01:22:57;;;;;;;;;;;29.50;91.30;;;;;;5027657;28;19956;-63
2021/12/03 01:25:24;;;;;;;;;;;29.50;91.30;;;;;;5024529;28;19921;-63
2021/12/03 01:27:52;;;;;;;;;;;29.50;91.10;;;;;;5023785;28;19914;-63
2021/12/03 01:30:19;;;;;;;;;;;29.40;90.80;;;;;;5004514;28;20302;-66
2021/12/03 01:32:46;;;;;;;;;;;29.10;91.10;;;;;;5025294;28;20286;-67
2021/12/03 01:35:12;;;;;;;;;;;28.90;91.60;;;;;;5017054;28;19909;-63
2021/12/03 01:37:40;;;;;;;;;;;28.80;91.90;;;;;;5016572;28;20373;-63
2021/12/03 01:40:08;;;;;;;;;;;28.60;91.90;;;;;;5029382;28;19972;-69
2021/12/03 01:42:35;;;;;;;;;;;28.60;92.30;;;;;;5019956;28;19913;-64
2021/12/03 01:45:01;;;;;;;;;;;28.70;92.20;;;;;;5037259;28;19913;-63
2021/12/03 01:47:31;;;;;;;;;;;28.60;92.00;;;;;;5036647;28;19909;-63
2021/12/03 01:49:58;;;;;;;;;;;28.50;92.20;;;;;;5036518;28;19916;-64
2021/12/03 01:52:24;;;;;;;;;;;28.60;92.10;;;;;;5036439;28;19916;-63
2021/12/03 01:54:51;;;;;;;;;;;28.70;92.60;;;;;;5036425;28;19913;-63
2021/12/03 01:57:18;;;;;;;;;;;28.70;92.40;;;;;;5036379;28;20271;-62
2021/12/03 01:59:44;;;;;;;;;;;28.80;92.10;;;;;;5036328;28;20308;-62
2021/12/03 02:02:11;;;;;;;;;;;29.00;92.20;;;;;;5036325;28;19917;-63
2021/12/03 02:04:38;;;;;;;;;;;29.10;92.00;;;;;;5036280;28;20365;-62
2021/12/03 02:07:05;;;;;;;;;;;29.00;92.10;;;;;;5036286;28;19909;-64
2021/12/03 02:09:31;;;;;;;;;;;29.00;92.10;;;;;;5036184;28;19913;-63
2021/12/03 02:11:58;;;;;;;;;;;28.90;92.00;;;;;;5036123;28;20365;-64
2021/12/03 02:14:25;;;;;;;;;;;28.90;92.50;;;;;;5036142;28;19909;-63
2021/12/03 02:16:51;;;;;;;;;;;29.00;91.80;;;;;;5035989;28;20454;-63
2021/12/03 02:19:18;;;;;;;;;;;29.10;92.10;;;;;;5018123;28;19988;-63
2021/12/03 02:21:45;;;;;;;;;;;29.20;91.90;;;;;;5036164;28;20281;-66
2021/12/03 02:24:12;;;;;;;;;;;29.30;91.80;;;;;;5018208;28;19967;-62
2021/12/03 02:26:39;;;;;;;;;;;29.40;91.70;;;;;;5035870;28;19984;-64
2021/12/03 02:29:06;;;;;;;;;;;29.50;92.00;;;;;;5035837;28;19909;-62
2021/12/03 02:31:33;;;;;;;;;;;29.60;91.50;;;;;;5018058;28;19987;-62
2021/12/03 02:33:59;;;;;;;;;;;29.80;91.80;;;;;;5031699;28;20082;-63
2021/12/03 02:36:27;;;;;;;;;;;29.80;91.20;;;;;;5024580;28;19920;-63
2021/12/03 02:38:54;;;;;;;;;;;29.90;91.30;;;;;;5015597;28;20176;-62
2021/12/03 02:41:20;;;;;;;;;;;30.00;91.00;;;;;;5015918;28;19910;-63
2021/12/03 02:43:47;;;;;;;;;;;29.90;90.90;;;;;;5014470;28;20294;-62
2021/12/03 02:46:14;;;;;;;;;;;29.40;91.20;;;;;;4998343;28;19909;-62
2021/12/03 02:48:41;;;;;;;;;;;28.90;91.40;;;;;;5015701;28;19910;-62
2021/12/03 02:51:07;;;;;;;;;;;28.30;91.40;;;;;;5015721;28;19916;-62
2021/12/03 02:53:34;;;;;;;;;;;27.70;92.20;;;;;;5015527;28;20349;-62
2021/12/03 02:56:01;;;;;;;;;;;27.40;92.60;;;;;;5015597;28;19968;-62
2021/12/03 02:58:28;;;;;;;;;;;27.10;92.80;;;;;;5015426;28;19909;-62
2021/12/03 03:00:58;;;;;;;;;;;26.80;93.20;;;;;;5015476;28;19916;-62
2021/12/03 03:03:25;;;;;;;;;;;26.40;93.30;;;;;;5015305;28;19971;-62
2021/12/03 03:05:58;;;;;;;;;;;26.30;93.70;;;;;;5015394;28;19913;-62
2021/12/03 03:08:25;;;;;;;;;;;26.10;93.80;;;;;;5015299;28;19909;-61
2021/12/03 03:10:51;;;;;;;;;;;25.90;94.00;;;;;;5015273;28;19949;-61
2021/12/03 03:13:18;;;;;;;;;;;25.90;94.20;;;;;;5015150;28;19956;-61
2021/12/03 03:15:45;;;;;;;;;;;26.40;94.10;;;;;;5015221;28;20004;-61
2021/12/03 03:18:15;;;;;;;;;;;26.90;94.00;;;;;;5015016;28;19920;-61
2021/12/03 03:20:43;;;;;;;;;;;27.50;93.40;;;;;;5015074;28;19914;-62
2021/12/03 03:23:10;;;;;;;;;;;28.10;93.10;;;;;;5014984;28;20270;-61
2021/12/03 03:25:36;;;;;;;;;;;28.30;92.20;;;;;;5015003;28;19910;-62
2021/12/03 03:28:03;;;;;;;;;;;28.70;92.10;;;;;;5030987;28;19920;-61
2021/12/03 03:30:30;;;;;;;;;;;29.00;92.00;;;;;;5034768;28;19909;-62
2021/12/03 03:32:57;;;;;;;;;;;29.30;91.60;;;;;;5034586;28;19963;-64
2021/12/03 03:35:23;;;;;;;;;;;29.20;91.20;;;;;;5034586;28;19920;-62
2021/12/03 03:37:51;;;;;;;;;;;29.10;91.30;;;;;;5034151;28;19921;-62
2021/12/03 03:40:18;;;;;;;;;;;29.20;91.40;;;;;;5032430;28;19921;-61
2021/12/03 03:42:44;;;;;;;;;;;29.20;91.00;;;;;;5030265;28;20067;-61
2021/12/03 03:45:13;;;;;;;;;;;29.20;91.00;;;;;;5033818;28;19913;-61
2021/12/03 03:47:40;;;;;;;;;;;29.20;91.20;;;;;;5034354;28;20369;-62
2021/12/03 03:50:10;;;;;;;;;;;29.20;91.10;;;;;;5034294;28;19916;-62
2021/12/03 03:52:37;;;;;;;;;;;29.00;91.10;;;;;;5029596;28;19920;-62
2021/12/03 03:55:04;;;;;;;;;;;28.90;91.00;;;;;;5014149;28;20232;-62
2021/12/03 03:57:31;;;;;;;;;;;28.70;91.20;;;;;;4980581;28;19958;-62
2021/12/03 03:59:57;;;;;;;;;;;28.70;91.20;;;;;;4996812;28;20397;-63
2021/12/03 04:02:24;;;;;;;;;;;28.80;91.30;;;;;;5014208;28;19928;-63
2021/12/03 04:04:51;;;;;;;;;;;28.80;91.10;;;;;;5014259;28;19909;-62
2021/12/03 04:07:18;;;;;;;;;;;28.90;91.10;;;;;;4996712;28;19910;-63
2021/12/03 04:09:44;;;;;;;;;;;29.00;90.70;;;;;;5015407;28;19949;-63
2021/12/03 04:12:11;;;;;;;;;;;29.20;90.90;;;;;;5014201;28;19921;-63
2021/12/03 04:14:38;;;;;;;;;;;29.40;90.60;;;;;;5014080;28;19909;-63
2021/12/03 04:17:05;;;;;;;;;;;29.60;90.30;;;;;;5014041;28;19952;-63
2021/12/03 04:19:31;;;;;;;;;;;29.40;90.40;;;;;;5013840;28;20309;-63
2021/12/03 04:21:58;;;;;;;;;;;29.20;90.10;;;;;;5013971;28;19928;-64
2021/12/03 04:24:25;;;;;;;;;;;28.80;90.80;;;;;;4996517;28;19952;-65
2021/12/03 04:26:51;;;;;;;;;;;28.20;91.10;;;;;;5020223;28;19913;-64
2021/12/03 04:29:18;;;;;;;;;;;27.80;91.40;;;;;;5033474;28;19909;-63
2021/12/03 04:31:45;;;;;;;;;;;27.60;91.70;;;;;;5033533;28;20031;-64
2021/12/03 04:34:11;;;;;;;;;;;27.10;91.70;;;;;;5033484;28;19966;-64
2021/12/03 04:36:38;;;;;;;;;;;26.60;92.50;;;;;;5033392;28;19916;-64
2021/12/03 04:39:05;;;;;;;;;;;26.20;92.80;;;;;;5033113;28;20344;-63
2021/12/03 04:41:31;;;;;;;;;;;25.90;93.30;;;;;;5030737;28;19922;-63
2021/12/03 04:43:58;;;;;;;;;;;25.70;93.40;;;;;;5014518;28;19917;-64
2021/12/03 04:46:25;;;;;;;;;;;25.30;93.70;;;;;;5013850;28;20004;-64
2021/12/03 04:48:51;;;;;;;;;;;24.90;94.10;;;;;;5013358;28;20305;-64
2021/12/03 04:51:18;;;;;;;;;;;24.50;94.80;;;;;;4995854;28;20330;-65
2021/12/03 04:53:45;;;;;;;;;;;24.30;95.10;;;;;;5013483;28;20006;-63
2021/12/03 04:56:12;;;;;;;;;;;24.10;95.30;;;;;;4995545;28;19919;-64
2021/12/03 04:58:38;;;;;;;;;;;23.90;95.50;;;;;;5013231;28;19916;-64
2021/12/03 05:01:05;;;;;;;;;;;23.70;96.00;;;;;;5013806;28;20327;-63
2021/12/03 05:03:31;;;;;;;;;;;23.50;96.30;;;;;;5013327;28;19917;-68
2021/12/03 05:06:01;;;;;;;;;;;23.40;96.70;;;;;;5012557;28;19910;-63
2021/12/03 05:08:29;;;;;;;;;;;23.20;97.00;;;;;;5013270;28;19917;-63
2021/12/03 05:10:55;;;;;;;;;;;22.90;97.80;;;;;;5013311;28;20013;-63
2021/12/03 05:13:23;;;;;;;;;;;22.70;98.50;;;;;;5013267;28;19944;-64
2021/12/03 05:15:50;;;;;;;;;;;22.50;99.40;;;;;;4995847;28;19910;-63
2021/12/03 05:18:18;;;;;;;;;;;22.40;99.60;;;;;;5013091;28;19913;-63
2021/12/03 05:20:45;;;;;;;;;;;22.20;99.90;;;;;;5013236;28;19910;-63
2021/12/03 05:23:12;;;;;;;;;;;22.10;99.90;;;;;;5013204;28;20392;-63
2021/12/03 05:25:38;;;;;;;;;;;22.10;99.90;;;;;;5012670;28;19909;-63
2021/12/03 05:28:05;;;;;;;;;;;22.00;99.90;;;;;;5012062;28;20350;-63
2021/12/03 05:30:32;;;;;;;;;;;22.00;99.90;;;;;;5012091;28;19913;-63
2021/12/03 05:32:58;;;;;;;;;;;21.90;99.90;;;;;;5013090;28;19916;-63
2021/12/03 05:35:25;;;;;;;;;;;21.90;99.90;;;;;;5013103;28;19916;-63
2021/12/03 05:37:52;;;;;;;;;;;21.90;99.90;;;;;;4995179;28;19926;-63
2021/12/03 05:40:18;;;;;;;;;;;21.90;99.90;;;;;;4995605;28;19953;-63
2021/12/03 05:42:46;;;;;;;;;;;22.00;99.90;;;;;;5012960;28;19918;-63
2021/12/03 05:45:14;;;;;;;;;;;21.90;99.90;;;;;;4995634;28;19910;-64
2021/12/03 05:47:40;;;;;;;;;;;21.80;99.90;;;;;;5012906;28;19909;-63
2021/12/03 05:50:07;;;;;;;;;;;21.80;99.90;;;;;;5012948;28;20366;-63
2021/12/03 05:52:34;;;;;;;;;;;21.90;99.90;;;;;;5012903;28;19922;-63
2021/12/03 05:55:01;;;;;;;;;;;21.90;99.90;;;;;;4995662;28;19944;-64
2021/12/03 05:57:28;;;;;;;;;;;22.00;99.90;;;;;;5012796;28;19916;-63
2021/12/03 05:59:54;;;;;;;;;;;22.00;99.90;;;;;;4995310;28;19909;-64
2021/12/03 06:02:21;;;;;;;;;;;22.00;99.90;;;;;;5012698;28;19953;-64
2021/12/03 06:04:48;;;;;;;;;;;21.90;99.90;;;;;;5008015;28;19924;-63
2021/12/03 06:07:14;;;;;;;;;;;21.90;99.90;;;;;;5008759;28;20469;-64
2021/12/03 06:09:42;;;;;;;;;;;22.00;99.90;;;;;;5012737;28;19914;-64
2021/12/03 06:12:09;;;;;;;;;;;22.00;99.90;;;;;;5007504;28;19953;-64
2021/12/03 06:14:36;;;;;;;;;;;22.00;99.90;;;;;;5014659;28;19975;-64
2021/12/03 06:17:03;;;;;;;;;;;22.10;99.90;;;;;;5032426;28;20287;-64
2021/12/03 06:19:29;;;;;;;;;;;22.10;99.90;;;;;;5023183;28;20416;-67
2021/12/03 06:21:56;;;;;;;;;;;22.10;99.90;;;;;;4998581;28;20378;-64
2021/12/03 06:24:23;;;;;;;;;;;22.20;99.90;;;;;;5035660;28;20384;-64
2021/12/03 06:26:49;;;;;;;;;;;22.20;99.90;;;;;;5035849;28;20005;-64
2021/12/03 06:29:16;;;;;;;;;;;22.20;99.90;;;;;;5035817;28;19916;-64
2021/12/03 06:31:43;;;;;;;;;;;22.20;99.90;;;;;;5018056;28;20365;-65
2021/12/03 06:34:09;;;;;;;;;;;22.20;99.90;;;;;;5001163;28;19963;-65
2021/12/03 06:36:36;;;;;;;;;;;22.20;99.90;;;;;;4997666;28;19913;-64
2021/12/03 06:39:03;;;;;;;;;;;22.10;99.90;;;;;;5035174;28;19961;-64
2021/12/03 06:41:29;;;;;;;;;;;22.00;99.90;;;;;;5035508;28;20392;-64
2021/12/03 06:43:57;;;;;;;;;;;22.00;99.90;;;;;;5035288;28;19913;-66
2021/12/03 06:46:23;;;;;;;;;;;22.00;99.90;;;;;;5014133;28;20000;-64
2021/12/03 06:48:50;;;;;;;;;;;22.00;99.90;;;;;;5035009;28;19913;-64
2021/12/03 06:51:17;;;;;;;;;;;22.10;99.90;;;;;;5031018;28;20000;-64
2021/12/03 06:53:55;;;;;;;;;;;22.00;99.90;;;;;;4998451;28;19952;-64
2021/12/03 06:56:23;;;;;;;;;;;22.00;99.90;;;;;;5015494;28;19992;-64
2021/12/03 06:58:49;;;;;;;;;;;21.90;99.90;;;;;;5015357;28;19913;-64
2021/12/03 07:01:16;;;;;;;;;;;21.90;99.90;;;;;;5015685;28;20000;-65
2021/12/03 07:03:43;;;;;;;;;;;21.90;99.90;;;;;;5012821;28;19913;-63
2021/12/03 07:06:09;;;;;;;;;;;21.80;99.90;;;;;;5015376;28;20358;-64
2021/12/03 07:08:36;;;;;;;;;;;21.80;99.90;;;;;;5015323;28;19916;-64
2021/12/03 07:11:03;;;;;;;;;;;21.80;99.90;;;;;;5018120;28;20000;-64
2021/12/03 07:13:30;;;;;;;;;;;21.80;99.90;;;;;;5035072;28;20002;-64
2021/12/03 07:15:58;;;;;;;;;;;21.80;99.90;;;;;;5035036;28;19909;-64
2021/12/03 07:18:24;;;;;;;;;;;21.70;99.90;;;;;;5024942;28;20378;-64
2021/12/03 07:20:51;;;;;;;;;;;21.70;99.90;;;;;;5015119;28;20000;-64
2021/12/03 07:23:18;;;;;;;;;;;21.70;99.90;;;;;;5021616;28;19947;-64
2021/12/03 07:25:44;;;;;;;;;;;21.60;99.90;;;;;;5034783;28;20313;-67
2021/12/03 07:28:13;;;;;;;;;;;21.60;99.90;;;;;;5034302;28;19913;-63
2021/12/03 07:30:39;;;;;;;;;;;21.60;99.90;;;;;;5034421;28;20267;-63
2021/12/03 07:33:10;;;;;;;;;;;21.50;99.90;;;;;;5013585;28;19916;-63
2021/12/03 07:35:37;;;;;;;;;;;21.50;99.90;;;;;;5032445;28;19908;-63
2021/12/03 07:38:03;;;;;;;;;;;21.40;99.90;;;;;;5034231;28;19921;-63
2021/12/03 07:40:30;;;;;;;;;;;21.50;99.90;;;;;;5013694;28;19917;-62
2021/12/03 07:42:57;;;;;;;;;;;21.40;99.90;;;;;;5034690;28;19913;-63
2021/12/03 07:45:23;;;;;;;;;;;21.40;99.90;;;;;;5013416;28;19916;-63
2021/12/03 07:47:50;;;;;;;;;;;21.30;99.90;;;;;;5033925;28;19932;-63
2021/12/03 07:50:17;;;;;;;;;;;21.30;99.90;;;;;;5034301;28;20000;-63
2021/12/03 07:52:44;;;;;;;;;;;21.20;99.90;;;;;;5034259;28;19954;-63
2021/12/03 07:55:11;;;;;;;;;;;21.10;99.90;;;;;;5013302;28;20441;-63
2021/12/03 07:57:37;;;;;;;;;;;21.10;99.90;;;;;;5033212;28;19909;-64
2021/12/03 08:00:05;;;;;;;;;;;21.00;99.90;;;;;;5054421;28;20042;-66
2021/12/03 08:02:32;;;;;;;;;;;21.00;99.90;;;;;;5016422;28;19922;-64
2021/12/03 08:04:59;;;;;;;;;;;20.90;99.90;;;;;;5017773;28;20384;-64
2021/12/03 08:07:26;;;;;;;;;;;20.90;99.90;;;;;;5014285;28;19917;-64
2021/12/03 08:09:52;;;;;;;;;;;20.80;99.90;;;;;;5014219;28;19910;-66
2021/12/03 08:12:19;;;;;;;;;;;20.90;99.90;;;;;;5027486;28;19952;-68
2021/12/03 08:14:46;;;;;;;;;;;20.80;99.90;;;;;;5033914;28;20462;-68
2021/12/03 08:17:12;;;;;;;;;;;20.80;99.90;;;;;;5033711;28;19970;-63
2021/12/03 08:19:39;;;;;;;;;;;20.70;99.90;;;;;;5033742;28;19948;-64
2021/12/03 08:22:06;;;;;;;;;;;20.70;99.90;;;;;;5012418;28;19949;-62
2021/12/03 08:24:32;;;;;;;;;;;20.70;99.90;;;;;;5030798;28;19955;-63
2021/12/03 08:27:00;;;;;;;;;;;20.60;99.90;;;;;;5033653;28;19995;-67
2021/12/03 08:29:27;;;;;;;;;;;20.60;99.90;;;;;;5033811;28;19936;-67
2021/12/03 08:31:54;;;;;;;;;;;20.50;99.90;;;;;;5025437;28;19971;-64
2021/12/03 08:34:20;;;;;;;;;;;20.50;99.90;;;;;;5033489;28;19937;-64
2021/12/03 08:36:47;;;;;;;;;;;20.50;99.90;;;;;;5033260;28;19916;-64
2021/12/03 08:39:14;;;;;;;;;;;20.50;99.90;;;;;;5033461;28;19955;-64
2021/12/03 08:41:41;;;;;;;;;;;20.50;99.90;;;;;;5033468;28;19916;-64
2021/12/03 08:44:07;;;;;;;;;;;20.50;99.90;;;;;;5033377;28;19913;-64
2021/12/03 08:46:38;;;;;;;;;;;20.50;99.90;;;;;;5033320;28;20377;-65
2021/12/03 08:49:51;;;;;;;;;;;20.50;99.90;;;;;;5012449;28;19917;-63
2021/12/03 08:57:16;;;;;;;;;;;20.30;99.90;;;;;;5033487;28;20419;-63
2021/12/03 08:59:42;;;;;;;;;;;20.30;99.90;;;;;;5015028;28;19916;-63
2021/12/03 09:02:09;;;;;;;;;;;20.30;99.90;;;;;;5033354;28;19913;-63
2021/12/03 09:04:36;;;;;;;;;;;20.30;99.90;;;;;;5033670;28;20407;-66
2021/12/03 09:07:04;;;;;;;;;;;20.30;99.90;;;;;;5033030;28;19916;-63
2021/12/03 09:09:31;;;;;;;;;;;20.20;99.90;;;;;;5033119;28;19909;-63
2021/12/03 09:11:58;;;;;;;;;;;20.20;99.90;;;;;;5028587;28;19959;-63
2021/12/03 09:17:05;;;;;;;;;;;20.20;99.90;;;;;;5013366;28;19909;-63
2021/12/03 09:19:38;;;;;;;;;;;20.20;99.90;;;;;;5009353;28;19913;-63
2021/12/03 09:22:07;;;;;;;;;;;20.20;99.90;;;;;;5013011;28;20357;-63
2021/12/03 09:24:38;;;;;;;;;;;20.20;99.90;;;;;;5009241;28;19909;-63
2021/12/03 09:27:04;;;;;;;;;;;20.10;99.90;;;;;;5013149;28;19971;-63
2021/12/03 09:29:33;;;;;;;;;;;20.10;99.90;;;;;;5013235;28;19909;-63
2021/12/03 09:32:00;;;;;;;;;;;20.10;99.90;;;;;;5013216;28;19917;-63
2021/12/03 09:34:32;;;;;;;;;;;20.00;99.90;;;;;;5008443;28;19909;-63
2021/12/03 09:36:58;;;;;;;;;;;20.00;99.90;;;;;;5011756;28;19993;-63
2021/12/03 09:39:25;;;;;;;;;;;20.10;99.90;;;;;;5013180;28;19916;-63
2021/12/03 09:41:53;;;;;;;;;;;20.10;99.90;;;;;;5012995;28;19914;-65
2021/12/03 09:44:20;;;;;;;;;;;20.10;99.90;;;;;;5013089;28;19909;-62
2021/12/03 09:46:47;;;;;;;;;;;20.00;99.90;;;;;;5010861;28;20358;-63
2021/12/03 09:52:04;;;;;;;;;;;20.10;99.90;;;;;;5010445;28;19913;-64
2021/12/03 09:54:42;;;;;;;;;;;20.00;99.90;;;;;;5021213;28;20314;-64
2021/12/03 09:57:10;;;;;;;;;;;20.00;99.90;;;;;;5036356;28;19917;-64
2021/12/03 10:12:51;;;;;;;;;;;19.90;99.90;;;;;;5022023;28;20272;-64
2021/12/03 10:20:34;;;;;;;;;;;19.90;99.90;;;;;;5024284;28;20542;-64
2021/12/03 10:44:04;;;;;;;;;;;19.70;99.90;;;;;;5035494;28;19913;-65
2021/12/03 10:47:00;;;;;;;;;;;19.60;99.90;;;;;;5015229;28;20286;-64
2021/12/03 10:49:49;;;;;;;;;;;19.60;99.90;;;;;;5014525;28;19909;-64
2021/12/03 10:52:28;;;;;;;;;;;19.60;99.90;;;;;;5030423;28;19913;-64
2021/12/03 10:57:51;;;;;;;;;;;19.60;99.90;;;;;;5033090;28;20426;-64
2021/12/03 11:11:14;;;;;;;;;;;19.70;99.90;;;;;;5035164;28;20349;-65
2021/12/03 11:26:12;;;;;;;;;;;19.80;99.90;;;;;;5034928;28;19937;-62
2021/12/03 11:33:38;;;;;;;;;;;19.80;99.90;;;;;;5005094;28;19914;-62
2021/12/03 11:36:43;;;;;;;;;;;19.80;99.90;;;;;;5008073;28;19920;-62
2021/12/03 12:15:48;;;;;;;;;;;19.70;99.90;;;;;;4994507;28;20490;-62
2021/12/03 12:26:57;;;;;;;;;;;19.70;99.90;;;;;;5005257;28;20374;-62
2021/12/03 14:00:00;;;;;;;;;;;19.80;99.90;;;;;;5036552;28;19959;-62
2021/12/03 14:14:28;;;;;;;;;;;19.80;99.90;;;;;;5036267;28;19916;-62
2021/12/03 14:31:59;;;;;;;;;;;19.80;99.90;;;;;;5036016;28;19932;-62
2021/12/03 14:41:21;;;;;;;;;;;19.80;99.90;;;;;;5035805;28;19916;-62
2021/12/03 14:44:20;;;;;;;;;;;19.70;99.90;;;;;;5035672;28;19920;-62
2021/12/03 14:51:57;;;;;;;;;;;19.70;99.90;;;;;;5034492;28;19916;-62
2021/12/03 15:03:25;;;;;;;;;;;19.80;99.90;;;;;;5011882;28;19913;-62
2021/12/03 15:08:29;;;;;;;;;;;19.80;99.90;;;;;;5035453;28;19910;-62
2021/12/03 15:18:53;;;;;;;;;;;19.80;99.90;;;;;;5035011;28;19916;-62
2021/12/03 15:37:16;;;;;;;;;;;19.70;99.90;;;;;;5034514;28;20007;-62
2021/12/03 16:04:13;;;;;;;;;;;19.60;99.90;;;;;;5033869;28;19938;-62
2021/12/03 16:12:10;;;;;;;;;;;19.60;99.90;;;;;;5018058;28;20267;-62
2021/12/03 16:14:49;;;;;;;;;;;19.60;99.90;;;;;;5033935;28;20416;-62
2021/12/03 16:20:32;;;;;;;;;;;19.50;99.90;;;;;;5026763;28;19916;-62
2021/12/03 16:48:30;;;;;;;;;;;19.50;99.90;;;;;;5033420;28;19909;-62
2021/12/03 16:53:17;;;;;;;;;;;19.40;99.90;;;;;;5033422;28;19916;-62
2021/12/03 16:55:54;;;;;;;;;;;19.40;99.90;;;;;;5014736;28;19916;-62
2021/12/03 16:58:21;;;;;;;;;;;19.40;99.90;;;;;;5012744;28;20305;-62
2021/12/03 17:00:55;;;;;;;;;;;19.40;99.90;;;;;;5032261;28;19916;-62
2021/12/03 17:03:26;;;;;;;;;;;19.40;99.90;;;;;;5011815;28;19977;-63
2021/12/03 17:56:49;;;;;;;;;;;19.20;99.90;;;;;;5032535;28;19915;-62
2021/12/03 18:01:53;;;;;;;;;;;19.20;99.90;;;;;;5014055;28;20278;-62
2021/12/03 18:07:11;;;;;;;;;;;19.20;99.90;;;;;;5016691;28;20281;-62
2021/12/03 18:15:24;;;;;;;;;;;19.20;99.90;;;;;;5036283;28;19932;-62
2021/12/03 18:18:23;;;;;;;;;;;19.20;99.90;;;;;;5035726;28;20400;-62
2021/12/03 18:51:01;;;;;;;;;;;19.10;99.90;;;;;;5035417;28;19917;-62
2021/12/03 18:56:18;;;;;;;;;;;19.20;99.90;;;;;;5029689;28;20011;-62
2021/12/03 18:58:46;;;;;;;;;;;19.20;99.90;;;;;;5035232;28;20416;-62
2021/12/03 19:01:14;;;;;;;;;;;19.10;99.90;;;;;;5035134;28;20004;-63
2021/12/03 19:04:02;;;;;;;;;;;19.10;99.90;;;;;;5035092;28;20321;-63
2021/12/03 19:06:43;;;;;;;;;;;19.20;99.90;;;;;;5035104;28;20366;-63
2021/12/03 19:11:52;;;;;;;;;;;19.10;99.90;;;;;;5033072;28;19913;-62
2021/12/03 19:14:19;;;;;;;;;;;19.10;99.90;;;;;;4999510;28;19910;-62
2021/12/03 19:16:46;;;;;;;;;;;19.10;99.90;;;;;;5028850;28;20059;-63
2021/12/03 19:19:15;;;;;;;;;;;19.10;99.90;;;;;;5017839;28;19921;-62
2021/12/03 19:21:43;;;;;;;;;;;19.10;99.90;;;;;;5009716;28;20277;-62
2021/12/03 19:24:11;;;;;;;;;;;19.10;99.90;;;;;;5033704;28;19976;-62
2021/12/03 19:26:46;;;;;;;;;;;19.10;99.90;;;;;;5033903;28;19916;-62
2021/12/03 19:29:14;;;;;;;;;;;19.10;99.90;;;;;;5013790;28;19914;-67
2021/12/03 19:31:41;;;;;;;;;;;19.10;99.90;;;;;;5031865;28;19924;-63
2021/12/03 19:34:08;;;;;;;;;;;19.10;99.90;;;;;;5034242;28;20005;-62
2021/12/03 19:36:39;;;;;;;;;;;19.10;99.90;;;;;;5033706;28;19936;-62
2021/12/03 19:39:06;;;;;;;;;;;19.10;99.90;;;;;;5013553;28;20387;-61
2021/12/03 19:41:41;;;;;;;;;;;19.20;99.90;;;;;;5032052;28;19913;-62
2021/12/03 19:44:16;;;;;;;;;;;19.20;99.90;;;;;;5034341;28;19918;-62
2021/12/03 19:46:47;;;;;;;;;;;19.10;99.90;;;;;;5000083;28;20255;-61
2021/12/03 19:49:21;;;;;;;;;;;19.10;99.90;;;;;;5033630;28;19916;-62
2021/12/03 19:51:51;;;;;;;;;;;19.10;99.90;;;;;;5033575;28;20381;-62
2021/12/03 19:54:17;;;;;;;;;;;19.10;99.90;;;;;;5012049;28;19948;-62
2021/12/03 19:56:44;;;;;;;;;;;19.10;99.90;;;;;;5024443;28;20293;-61
2021/12/03 19:59:11;;;;;;;;;;;19.10;99.90;;;;;;5033050;28;19917;-63
2021/12/03 20:01:38;;;;;;;;;;;19.20;99.90;;;;;;5033062;28;20382;-64
2021/12/03 20:04:05;;;;;;;;;;;19.20;99.90;;;;;;5033673;28;19924;-63
2021/12/03 20:06:32;;;;;;;;;;;19.20;99.90;;;;;;5029898;28;19921;-62
2021/12/03 20:09:01;;;;;;;;;;;19.20;99.90;;;;;;5019720;28;19921;-62
2021/12/03 20:11:38;;;;;;;;;;;19.20;99.90;;;;;;5033798;28;19979;-62
2021/12/03 20:14:06;;;;;;;;;;;19.20;99.90;;;;;;5004910;28;19914;-64
2021/12/03 20:19:15;;;;;;;;;;;19.30;99.90;;;;;;5033681;28;20316;-62
2021/12/03 20:21:50;;;;;;;;;;;19.30;99.90;;;;;;5033459;28;19917;-62
2021/12/03 20:24:34;;;;;;;;;;;19.40;99.90;;;;;;5012682;28;19917;-63
2021/12/03 20:27:03;;;;;;;;;;;19.40;99.90;;;;;;5025892;28;20357;-63
2021/12/03 20:37:42;;;;;;;;;;;19.60;99.90;;;;;;4987525;28;19947;-62
2021/12/03 20:40:23;;;;;;;;;;;19.60;99.90;;;;;;5032822;28;19947;-62
2021/12/03 20:48:08;;;;;;;;;;;19.50;99.90;;;;;;5033513;28;19945;-62
2021/12/03 21:09:18;;;;;;;;;;;19.90;99.90;;;;;;5014020;28;19916;-62
2021/12/03 21:11:48;;;;;;;;;;;19.90;99.90;;;;;;5024816;28;19913;-62
2021/12/03 21:14:26;;;;;;;;;;;20.00;99.90;;;;;;5013418;28;20386;-63
2021/12/03 21:19:47;;;;;;;;;;;20.10;99.90;;;;;;5016208;28;20461;-63
2021/12/03 21:22:16;;;;;;;;;;;20.10;99.90;;;;;;5020854;28;20055;-63
2021/12/03 21:24:44;;;;;;;;;;;20.10;99.90;;;;;;5018223;28;20012;-63
2021/12/03 21:27:19;;;;;;;;;;;20.20;99.90;;;;;;5014874;28;20025;-63
2021/12/03 21:30:15;;;;;;;;;;;20.20;99.90;;;;;;4986971;28;19909;-61
2021/12/03 21:32:58;;;;;;;;;;;20.30;99.90;;;;;;5020286;28;19914;-62
2021/12/03 21:43:20;;;;;;;;;;;20.40;99.90;;;;;;5014146;28;19913;-62
2021/12/03 21:45:47;;;;;;;;;;;20.50;99.90;;;;;;5017456;28;19931;-62
2021/12/03 21:48:14;;;;;;;;;;;20.60;99.90;;;;;;5003165;28;20329;-62
2021/12/03 21:50:40;;;;;;;;;;;20.60;99.90;;;;;;5022655;28;19909;-62
2021/12/03 21:53:07;;;;;;;;;;;20.60;99.90;;;;;;5021557;28;19942;-63
2021/12/03 21:55:36;;;;;;;;;;;20.60;99.90;;;;;;5008811;28;19916;-63
2021/12/03 21:58:03;;;;;;;;;;;20.60;99.90;;;;;;5029092;28;19955;-63
2021/12/03 22:00:30;;;;;;;;;;;20.60;99.90;;;;;;5036400;28;20107;-62
2021/12/03 22:02:56;;;;;;;;;;;20.60;99.90;;;;;;5036426;28;19913;-62
2021/12/03 22:05:23;;;;;;;;;;;20.60;99.90;;;;;;5036335;28;19913;-62
2021/12/03 22:07:50;;;;;;;;;;;20.60;99.90;;;;;;5036504;28;19935;-62
2021/12/03 22:10:16;;;;;;;;;;;20.70;99.90;;;;;;5036320;28;19959;-62
2021/12/03 22:12:43;;;;;;;;;;;20.80;99.90;;;;;;5036338;28;20005;-62
2021/12/03 22:15:10;;;;;;;;;;;20.80;99.90;;;;;;5036171;28;19916;-62
2021/12/03 22:17:37;;;;;;;;;;;20.90;99.90;;;;;;5036185;28;19962;-62
2021/12/03 22:20:04;;;;;;;;;;;20.90;99.90;;;;;;5015024;28;19959;-62
2021/12/03 22:22:30;;;;;;;;;;;21.00;99.90;;;;;;4998980;28;20432;-62
2021/12/03 22:24:57;;;;;;;;;;;21.00;99.90;;;;;;5036086;28;19909;-62
2021/12/03 22:27:24;;;;;;;;;;;21.10;99.90;;;;;;5035918;28;19909;-62
2021/12/03 22:29:50;;;;;;;;;;;21.20;99.90;;;;;;5017950;28;19979;-62
2021/12/03 22:32:17;;;;;;;;;;;21.20;99.90;;;;;;5035964;28;20293;-62
2021/12/03 22:34:44;;;;;;;;;;;21.20;99.90;;;;;;5017037;28;20414;-62
2021/12/03 22:37:10;;;;;;;;;;;21.20;99.90;;;;;;5035674;28;19924;-62
2021/12/03 22:39:39;;;;;;;;;;;21.20;99.90;;;;;;5035693;28;19917;-62